createdAt,value
2022-11-05T00:01:45.591Z,10.80
2022-11-05T00:04:31.280Z,10.80
2022-11-05T00:07:21.190Z,10.76
2022-11-05T00:09:48.377Z,10.73
2022-11-05T00:12:33.301Z,10.50
2022-11-05T00:15:18.164Z,10.60
2022-11-05T00:17:44.409Z,10.40
2022-11-05T00:20:13.631Z,10.44
2022-11-05T00:22:58.601Z,10.39
2022-11-05T00:25:25.172Z,10.41
2022-11-05T00:27:53.155Z,10.34
2022-11-05T00:30:25.187Z,10.32
2022-11-05T00:32:52.775Z,10.20
2022-11-05T00:35:20.977Z,10.31
2022-11-05T00:37:50.380Z,10.29
2022-11-05T00:40:17.554Z,10.29
2022-11-05T00:43:02.827Z,10.24
2022-11-05T00:45:30.583Z,10.26
2022-11-05T00:48:15.473Z,10.19
2022-11-05T00:50:42.029Z,10.28
2022-11-05T00:53:08.582Z,10.14
2022-11-05T00:55:40.031Z,10.23
2022-11-05T00:58:12.109Z,10.16
2022-11-05T01:00:40.542Z,10.21
2022-11-05T01:03:10.614Z,10.11
2022-11-05T01:05:45.481Z,10.23
2022-11-05T01:08:13.468Z,10.12
2022-11-05T01:10:44.991Z,10.21
2022-11-05T01:13:13.382Z,10.22
2022-11-05T01:15:40.035Z,10.13
2022-11-05T01:18:06.379Z,10.23
2022-11-05T01:20:32.936Z,10.22
2022-11-05T01:22:59.510Z,10.25
2022-11-05T01:25:25.751Z,10.23
2022-11-05T01:27:52.625Z,10.20
2022-11-05T01:30:18.903Z,10.21
2022-11-05T01:32:45.140Z,10.18
2022-11-05T01:35:14.172Z,10.13
2022-11-05T01:37:40.437Z,9.98
2022-11-05T01:40:08.459Z,10.07
2022-11-05T01:42:34.981Z,10.04
2022-11-05T01:45:07.201Z,10.04
2022-11-05T01:47:57.821Z,10.02
2022-11-05T01:50:28.016Z,10.02
2022-11-05T01:52:58.183Z,9.98
2022-11-05T01:55:26.793Z,9.97
2022-11-05T01:57:53.889Z,9.97
2022-11-05T02:00:20.108Z,9.99
2022-11-05T02:02:47.365Z,9.98
2022-11-05T02:05:14.575Z,9.97
2022-11-05T02:07:41.073Z,9.97
2022-11-05T02:10:10.140Z,9.94
2022-11-05T02:12:38.269Z,9.95
2022-11-05T02:15:05.782Z,9.96
2022-11-05T02:17:47.241Z,9.95
2022-11-05T02:20:28.707Z,9.97
2022-11-05T02:23:20.713Z,10.00
2022-11-05T02:26:12.150Z,10.01
2022-11-05T02:29:02.678Z,10.02
2022-11-05T02:31:36.778Z,10.03
2022-11-05T02:34:08.445Z,10.05
2022-11-05T02:36:54.275Z,10.08
2022-11-05T02:39:32.513Z,10.09
2022-11-05T02:42:20.570Z,10.10
2022-11-05T02:44:58.978Z,10.12
2022-11-05T02:47:41.750Z,10.14
2022-11-05T02:50:37.686Z,10.20
2022-11-05T02:53:10.857Z,10.21
2022-11-05T02:55:41.610Z,10.23
2022-11-05T02:58:08.850Z,10.22
2022-11-05T03:00:35.312Z,10.19
2022-11-05T03:03:02.368Z,10.22
2022-11-05T03:05:48.973Z,10.22
2022-11-05T03:08:41.442Z,10.13
2022-11-05T03:11:14.256Z,10.22
2022-11-05T03:13:47.060Z,10.22
2022-11-05T03:16:19.446Z,10.21
2022-11-05T03:19:30.899Z,10.22
2022-11-05T03:22:03.151Z,10.23
2022-11-05T03:24:42.767Z,10.12
2022-11-05T03:27:12.986Z,10.28
2022-11-05T03:29:43.615Z,10.33
2022-11-05T03:32:11.808Z,10.33
2022-11-05T03:34:50.502Z,10.34
2022-11-05T03:37:22.048Z,10.35
2022-11-05T03:39:55.450Z,10.36
2022-11-05T03:42:26.515Z,10.38
2022-11-05T03:44:55.521Z,10.31
2022-11-05T03:47:24.725Z,10.41
2022-11-05T03:50:03.886Z,10.42
2022-11-05T03:52:35.836Z,10.42
2022-11-05T03:55:02.089Z,10.39
2022-11-05T03:57:37.374Z,10.40
2022-11-05T04:00:07.985Z,10.39
2022-11-05T04:02:37.946Z,10.38
2022-11-05T04:05:05.332Z,10.24
2022-11-05T04:08:14.081Z,10.31
2022-11-05T04:10:59.611Z,10.19
2022-11-05T04:13:25.939Z,10.35
2022-11-05T04:16:12.397Z,10.37
2022-11-05T04:18:39.025Z,10.38
2022-11-05T04:21:24.703Z,10.34
2022-11-05T04:24:09.228Z,10.35
2022-11-05T04:26:41.442Z,10.34
2022-11-05T04:29:26.850Z,10.35
2022-11-05T04:31:53.542Z,10.34
2022-11-05T04:34:22.006Z,10.35
2022-11-05T04:36:49.780Z,10.34
2022-11-05T04:39:17.967Z,10.35
2022-11-05T04:41:45.433Z,10.35
2022-11-05T04:44:11.688Z,10.27
2022-11-05T04:46:38.198Z,10.32
2022-11-05T04:49:04.444Z,10.29
2022-11-05T04:51:30.691Z,10.39
2022-11-05T04:53:57.217Z,10.32
2022-11-05T04:56:24.554Z,10.31
2022-11-05T04:58:50.917Z,10.45
2022-11-05T05:01:22.904Z,10.36
2022-11-05T05:03:50.717Z,10.43
2022-11-05T05:06:17.659Z,10.42
2022-11-05T05:08:44.673Z,10.43
2022-11-05T05:11:12.961Z,10.38
2022-11-05T05:13:39.207Z,10.37
2022-11-05T05:16:11.438Z,10.25
2022-11-05T05:18:40.982Z,10.33
2022-11-05T05:21:30.247Z,10.32
2022-11-05T05:23:56.537Z,10.22
2022-11-05T05:26:23.073Z,10.24
2022-11-05T05:28:49.308Z,10.20
2022-11-05T05:31:15.539Z,10.17
2022-11-05T05:33:42.049Z,10.16
2022-11-05T05:36:11.489Z,10.15
2022-11-05T05:38:38.037Z,10.14
2022-11-05T05:41:04.615Z,10.06
2022-11-05T05:43:32.355Z,10.13
2022-11-05T05:46:07.415Z,10.11
2022-11-05T05:48:34.560Z,10.02
2022-11-05T05:51:11.593Z,10.15
2022-11-05T05:53:38.723Z,10.14
2022-11-05T05:56:05.609Z,10.15
2022-11-05T05:58:34.309Z,10.16
2022-11-05T06:01:06.629Z,10.16
2022-11-05T06:03:33.657Z,10.15
2022-11-05T06:06:08.666Z,10.12
2022-11-05T06:08:35.935Z,10.01
2022-11-05T06:11:03.530Z,10.08
2022-11-05T06:13:30.288Z,10.08
2022-11-05T06:16:01.554Z,10.06
2022-11-05T06:18:28.347Z,9.95
2022-11-05T06:20:55.885Z,10.05
2022-11-05T06:23:22.413Z,10.02
2022-11-05T06:25:48.640Z,10.03
2022-11-05T06:28:14.866Z,10.01
2022-11-05T06:30:41.364Z,9.99
2022-11-05T06:33:07.754Z,10.02
2022-11-05T06:35:34.123Z,10.01
2022-11-05T06:38:03.690Z,10.01
2022-11-05T06:40:29.916Z,10.00
2022-11-05T06:42:56.145Z,9.99
2022-11-05T06:45:22.717Z,9.99
2022-11-05T06:47:48.984Z,10.00
2022-11-05T06:50:15.433Z,10.02
2022-11-05T06:52:41.942Z,10.00
2022-11-05T06:55:09.070Z,10.07
2022-11-05T06:57:37.593Z,10.07
2022-11-05T07:00:07.796Z,10.02
2022-11-05T07:02:34.466Z,10.09
2022-11-05T07:05:00.682Z,10.15
2022-11-05T07:07:27.210Z,10.14
2022-11-05T07:09:53.446Z,10.14
2022-11-05T07:12:19.680Z,10.13
2022-11-05T07:14:46.194Z,10.11
2022-11-05T07:17:12.482Z,10.13
2022-11-05T07:19:38.766Z,10.13
2022-11-05T07:22:05.273Z,10.14
2022-11-05T07:24:31.526Z,10.18
2022-11-05T07:26:57.744Z,10.18
2022-11-05T07:29:24.260Z,10.17
2022-11-05T07:31:50.545Z,10.14
2022-11-05T07:34:16.768Z,10.07
2022-11-05T07:36:43.337Z,10.15
2022-11-05T07:39:10.047Z,10.14
2022-11-05T07:41:36.288Z,10.19
2022-11-05T07:44:03.896Z,10.23
2022-11-05T07:46:30.627Z,10.14
2022-11-05T07:48:56.853Z,10.32
2022-11-05T07:51:23.398Z,10.36
2022-11-05T07:53:49.639Z,10.41
2022-11-05T07:56:16.405Z,10.43
2022-11-05T07:58:43.059Z,10.38
2022-11-05T08:01:09.423Z,10.45
2022-11-05T08:03:36.215Z,10.44
2022-11-05T08:06:02.526Z,10.46
2022-11-05T08:08:28.765Z,10.51
2022-11-05T08:11:03.082Z,10.56
2022-11-05T08:13:29.320Z,10.58
2022-11-05T08:15:58.682Z,10.65
2022-11-05T08:18:31.338Z,10.67
2022-11-05T08:20:59.510Z,10.67
2022-11-05T08:23:29.447Z,10.60
2022-11-05T08:25:56.770Z,10.68
2022-11-05T08:28:24.436Z,10.68
2022-11-05T08:30:52.347Z,10.70
2022-11-05T08:33:19.174Z,10.70
2022-11-05T08:35:45.705Z,10.72
2022-11-05T08:38:15.505Z,10.77
2022-11-05T08:40:42.974Z,10.84
2022-11-05T08:43:12.399Z,10.90
2022-11-05T08:45:41.706Z,10.94
2022-11-05T08:48:10.377Z,10.98
2022-11-05T08:50:37.389Z,11.01
2022-11-05T08:53:05.005Z,11.10
2022-11-05T08:55:31.390Z,11.07
2022-11-05T08:58:02.273Z,11.18
2022-11-05T09:00:30.010Z,11.20
2022-11-05T09:02:59.710Z,11.17
2022-11-05T09:05:26.540Z,11.13
2022-11-05T09:07:57.891Z,11.15
2022-11-05T09:10:28.347Z,11.15
2022-11-05T09:12:54.672Z,11.21
2022-11-05T09:15:20.994Z,11.25
2022-11-05T09:17:47.500Z,11.30
2022-11-05T09:20:13.753Z,11.33
2022-11-05T09:22:43.219Z,11.43
2022-11-05T09:25:10.080Z,11.39
2022-11-05T09:27:36.304Z,11.44
2022-11-05T09:30:02.578Z,11.55
2022-11-05T09:32:31.026Z,11.57
2022-11-05T09:34:57.245Z,11.55
2022-11-05T09:37:23.508Z,11.65
2022-11-05T09:39:50.023Z,11.70
2022-11-05T09:42:17.725Z,11.65
2022-11-05T09:44:48.352Z,11.86
2022-11-05T09:47:19.751Z,11.84
2022-11-05T09:49:50.246Z,11.95
2022-11-05T09:52:20.911Z,12.04
2022-11-05T09:54:48.761Z,12.15
2022-11-05T09:57:19.709Z,12.19
2022-11-05T09:59:49.981Z,12.28
2022-11-05T10:02:23.684Z,12.37
2022-11-05T10:04:53.484Z,12.43
2022-11-05T10:07:26.654Z,12.50
2022-11-05T10:10:02.114Z,12.61
2022-11-05T10:12:44.963Z,12.63
2022-11-05T10:15:38.106Z,12.58
2022-11-05T10:18:19.577Z,12.67
2022-11-05T10:20:46.377Z,12.70
2022-11-05T10:23:15.566Z,12.74
2022-11-05T10:25:51.259Z,12.71
2022-11-05T10:28:21.252Z,12.71
2022-11-05T10:30:51.071Z,12.71
2022-11-05T10:33:31.669Z,12.70
2022-11-05T10:36:04.448Z,12.74
2022-11-05T10:38:31.474Z,12.79
2022-11-05T10:41:20.115Z,12.78
2022-11-05T10:43:51.853Z,12.75
2022-11-05T10:46:33.799Z,12.70
2022-11-05T10:49:26.259Z,12.65
2022-11-05T10:51:56.085Z,12.63
2022-11-05T10:54:25.102Z,12.61
2022-11-05T10:56:51.336Z,12.58
2022-11-05T10:59:26.168Z,12.53
2022-11-05T11:02:15.477Z,12.57
2022-11-05T11:04:41.955Z,12.62
2022-11-05T11:07:21.941Z,12.65
2022-11-05T11:09:49.308Z,12.70
2022-11-05T11:12:21.455Z,12.76
2022-11-05T11:15:14.171Z,12.86
2022-11-05T11:17:40.914Z,12.92
2022-11-05T11:20:16.434Z,12.96
2022-11-05T11:22:54.165Z,13.00
2022-11-05T11:25:25.575Z,12.97
2022-11-05T11:27:52.618Z,13.16
2022-11-05T11:30:20.407Z,13.28
2022-11-05T11:32:47.804Z,13.35
2022-11-05T11:35:22.716Z,13.43
2022-11-05T11:37:49.834Z,13.47
2022-11-05T11:40:25.201Z,13.47
2022-11-05T11:42:54.688Z,13.46
2022-11-05T11:45:32.022Z,13.43
2022-11-05T11:48:02.140Z,13.43
2022-11-05T11:50:39.666Z,13.43
2022-11-05T11:53:21.238Z,13.43
2022-11-05T11:55:58.602Z,13.42
2022-11-05T11:58:37.997Z,13.47
2022-11-05T12:01:33.254Z,13.48
2022-11-05T12:04:15.166Z,13.41
2022-11-05T12:06:47.407Z,13.43
2022-11-05T12:09:19.863Z,13.42
2022-11-05T12:11:51.823Z,13.43
2022-11-05T12:15:00.926Z,13.44
2022-11-05T12:17:33.714Z,13.49
2022-11-05T12:20:30.005Z,13.57
2022-11-05T12:23:15.134Z,13.59
2022-11-05T12:25:58.246Z,13.54
2022-11-05T12:29:04.481Z,13.42
2022-11-05T12:31:35.264Z,13.49
2022-11-05T12:34:38.871Z,13.47
2022-11-05T12:37:12.255Z,13.38
2022-11-05T12:39:59.871Z,13.31
2022-11-05T12:43:23.702Z,13.27
2022-11-05T12:46:00.630Z,13.29
2022-11-05T12:48:38.448Z,13.30
2022-11-05T12:51:19.410Z,13.25
2022-11-05T12:53:54.985Z,13.22
2022-11-05T12:56:34.356Z,13.23
2022-11-05T12:59:06.423Z,13.26
2022-11-05T13:01:39.930Z,13.22
2022-11-05T13:04:14.770Z,13.20
2022-11-05T13:06:43.342Z,13.21
2022-11-05T13:09:20.390Z,13.18
2022-11-05T13:12:06.781Z,13.19
2022-11-05T13:14:50.577Z,13.18
2022-11-05T13:17:20.408Z,13.15
2022-11-05T13:19:59.700Z,13.17
2022-11-05T13:22:25.846Z,13.18
2022-11-05T13:25:07.298Z,13.19
2022-11-05T13:27:59.680Z,13.12
2022-11-05T13:30:31.896Z,13.20
2022-11-05T13:33:26.695Z,13.18
2022-11-05T13:36:33.524Z,13.19
2022-11-05T13:39:09.362Z,13.20
2022-11-05T13:42:01.573Z,13.16
2022-11-05T13:44:39.677Z,13.15
2022-11-05T13:47:20.223Z,13.09
2022-11-05T13:50:23.909Z,13.03
2022-11-05T13:53:10.583Z,12.99
2022-11-05T13:56:05.631Z,12.99
2022-11-05T13:58:40.807Z,12.95
2022-11-05T14:01:16.256Z,12.92
2022-11-05T14:03:51.057Z,12.92
2022-11-05T14:06:30.214Z,12.88
2022-11-05T14:09:00.305Z,12.84
2022-11-05T14:11:32.440Z,12.80
2022-11-05T14:14:01.936Z,12.79
2022-11-05T14:16:54.898Z,12.76
2022-11-05T14:19:31.220Z,12.74
2022-11-05T14:21:58.080Z,12.72
2022-11-05T14:24:40.420Z,12.68
2022-11-05T14:27:06.656Z,12.64
2022-11-05T14:29:44.040Z,12.60
2022-11-05T14:32:43.806Z,12.58
2022-11-05T14:35:16.505Z,12.54
2022-11-05T14:37:56.139Z,12.51
2022-11-05T14:40:26.214Z,12.46
2022-11-05T14:42:55.268Z,12.38
2022-11-05T14:45:29.351Z,12.33
2022-11-05T14:48:01.310Z,12.30
2022-11-05T14:50:35.701Z,12.24
2022-11-05T14:53:11.347Z,12.19
2022-11-05T14:55:40.454Z,12.17
2022-11-05T14:58:36.798Z,11.99
2022-11-05T15:01:06.585Z,12.02
2022-11-05T15:03:45.395Z,11.97
2022-11-05T15:06:21.898Z,11.90
2022-11-05T15:08:48.328Z,11.81
2022-11-05T15:11:16.392Z,11.71
2022-11-05T15:13:51.649Z,11.62
2022-11-05T15:16:23.141Z,11.47
2022-11-05T15:18:50.056Z,11.40
2022-11-05T15:21:17.844Z,11.36
2022-11-05T15:23:46.129Z,11.26
2022-11-05T15:26:23.889Z,11.19
2022-11-05T15:28:53.972Z,11.11
2022-11-05T15:31:31.857Z,11.01
2022-11-05T15:34:26.573Z,10.99
2022-11-05T15:37:00.164Z,10.92
2022-11-05T15:39:40.451Z,10.86
2022-11-05T15:42:18.906Z,10.85
2022-11-05T15:44:47.606Z,10.79
2022-11-05T15:47:34.137Z,10.78
2022-11-05T15:50:02.879Z,10.74
2022-11-05T15:52:37.165Z,10.75
2022-11-05T15:55:13.853Z,10.72
2022-11-05T15:57:50.402Z,10.69
2022-11-05T16:00:23.819Z,10.57
2022-11-05T16:03:01.796Z,10.63
2022-11-05T16:05:31.587Z,10.63
2022-11-05T16:07:59.532Z,10.59
2022-11-05T16:10:30.796Z,10.53
2022-11-05T16:12:57.186Z,10.47
2022-11-05T16:15:26.196Z,10.40
2022-11-05T16:17:55.289Z,10.36
2022-11-05T16:20:23.668Z,10.25
2022-11-05T16:22:54.606Z,10.24
2022-11-05T16:25:26.845Z,10.18
2022-11-05T16:27:53.626Z,10.07
2022-11-05T16:30:20.537Z,10.08
2022-11-05T16:32:47.691Z,10.06
2022-11-05T16:35:19.947Z,10.03
2022-11-05T16:37:51.778Z,9.87
2022-11-05T16:40:24.369Z,9.79
2022-11-05T16:42:52.786Z,9.91
2022-11-05T16:45:22.162Z,9.86
2022-11-05T16:47:48.980Z,9.86
2022-11-05T16:50:23.030Z,9.75
2022-11-05T16:52:49.916Z,9.79
2022-11-05T16:55:17.614Z,9.78
2022-11-05T16:57:45.968Z,9.77
2022-11-05T17:00:17.613Z,9.75
2022-11-05T17:02:45.281Z,9.71
2022-11-05T17:05:26.746Z,9.72
2022-11-05T17:07:53.699Z,9.68
2022-11-05T17:10:21.361Z,9.68
2022-11-05T17:12:48.273Z,9.67
2022-11-05T17:15:36.982Z,9.66
2022-11-05T17:18:04.845Z,9.66
2022-11-05T17:20:41.605Z,9.68
2022-11-05T17:23:22.865Z,9.67
2022-11-05T17:25:52.851Z,9.54
2022-11-05T17:28:19.992Z,9.67
2022-11-05T17:30:52.265Z,9.57
2022-11-05T17:33:20.760Z,9.66
2022-11-05T17:35:47.322Z,9.65
2022-11-05T17:38:13.866Z,9.63
2022-11-05T17:40:41.466Z,9.57
2022-11-05T17:43:08.257Z,9.61
2022-11-05T17:45:35.141Z,9.56
2022-11-05T17:48:03.381Z,9.61
2022-11-05T17:50:30.234Z,9.61
2022-11-05T17:52:56.856Z,9.61
2022-11-05T17:55:23.609Z,9.61
2022-11-05T17:57:51.302Z,9.60
2022-11-05T18:00:20.832Z,9.60
2022-11-05T18:02:49.592Z,9.60
2022-11-05T18:05:17.778Z,9.60
2022-11-05T18:07:44.867Z,9.60
2022-11-05T18:10:12.152Z,9.57
2022-11-05T18:12:39.378Z,9.51
2022-11-05T18:15:06.741Z,9.49
2022-11-05T18:17:33.943Z,9.45
2022-11-05T18:20:00.448Z,9.33
2022-11-05T18:22:26.982Z,9.31
2022-11-05T18:24:54.798Z,9.38
2022-11-05T18:27:24.561Z,9.38
2022-11-05T18:29:51.187Z,9.27
2022-11-05T18:32:18.002Z,9.19
2022-11-05T18:34:44.468Z,9.30
2022-11-05T18:37:11.072Z,9.29
2022-11-05T18:39:37.889Z,9.19
2022-11-05T18:42:04.893Z,9.33
2022-11-05T18:44:36.279Z,9.32
2022-11-05T18:47:06.908Z,9.32
2022-11-05T18:49:33.425Z,9.39
2022-11-05T18:51:59.909Z,9.41
2022-11-05T18:54:26.825Z,9.40
2022-11-05T18:56:53.301Z,9.40
2022-11-05T18:59:36.860Z,9.38
2022-11-05T19:02:04.955Z,9.41
2022-11-05T19:04:31.593Z,9.45
2022-11-05T19:07:03.272Z,9.47
2022-11-05T19:09:32.026Z,9.47
2022-11-05T19:11:58.472Z,9.50
2022-11-05T19:14:24.942Z,9.55
2022-11-05T19:16:51.723Z,9.54
2022-11-05T19:19:18.364Z,9.54
2022-11-05T19:21:45.023Z,9.43
2022-11-05T19:24:16.865Z,9.54
2022-11-05T19:26:44.089Z,9.50
2022-11-05T19:29:10.582Z,9.50
2022-11-05T19:31:37.354Z,9.49
2022-11-05T19:34:05.539Z,9.52
2022-11-05T19:36:33.124Z,9.49
2022-11-05T19:39:07.393Z,9.54
2022-11-05T19:41:33.848Z,9.56
2022-11-05T19:44:01.929Z,9.57
2022-11-05T19:46:29.216Z,9.53
2022-11-05T19:48:55.693Z,9.60
2022-11-05T19:51:25.285Z,9.49
2022-11-05T19:53:52.939Z,9.52
2022-11-05T19:56:24.094Z,9.55
2022-11-05T19:58:51.832Z,9.51
2022-11-05T20:01:19.107Z,9.67
2022-11-05T20:03:46.678Z,9.67
2022-11-05T20:06:19.218Z,9.65
2022-11-05T20:09:15.300Z,9.64
2022-11-05T20:11:32.563Z,9.66
2022-11-05T20:13:59.360Z,9.64
2022-11-05T20:16:29.443Z,9.69
2022-11-05T20:18:57.341Z,9.71
2022-11-05T20:21:24.181Z,9.70
2022-11-05T20:23:50.752Z,9.72
2022-11-05T20:26:17.424Z,9.72
2022-11-05T20:28:44.391Z,9.71
2022-11-05T20:31:13.704Z,9.74
2022-11-05T20:33:40.901Z,9.75
2022-11-05T20:36:10.843Z,9.73
2022-11-05T20:38:37.326Z,9.74
2022-11-05T20:41:09.276Z,9.67
2022-11-05T20:43:37.280Z,9.70
2022-11-05T20:46:04.224Z,9.67
2022-11-05T20:48:34.620Z,9.70
2022-11-05T20:51:06.584Z,9.64
2022-11-05T20:53:33.111Z,9.62
2022-11-05T20:56:02.494Z,9.61
2022-11-05T20:58:33.553Z,9.66
2022-11-05T21:01:00.015Z,9.68
2022-11-05T21:03:27.325Z,9.65
2022-11-05T21:05:59.731Z,9.69
2022-11-05T21:08:27.487Z,9.71
2022-11-05T21:10:54.935Z,9.71
2022-11-05T21:13:21.802Z,9.72
2022-11-05T21:15:59.136Z,9.68
2022-11-05T21:18:30.746Z,9.70
2022-11-05T21:20:57.644Z,9.70
2022-11-05T21:23:24.104Z,9.69
2022-11-05T21:25:50.916Z,9.71
2022-11-05T21:28:18.637Z,9.67
2022-11-05T21:30:46.217Z,9.63
2022-11-05T21:33:17.615Z,9.71
2022-11-05T21:35:46.540Z,9.69
2022-11-05T21:38:14.748Z,9.81
2022-11-05T21:40:41.537Z,9.78
2022-11-05T21:43:08.628Z,9.81
2022-11-05T21:45:38.428Z,9.79
2022-11-05T21:48:05.192Z,9.80
2022-11-05T21:50:50.156Z,9.84
2022-11-05T21:53:36.253Z,9.79
2022-11-05T21:56:39.476Z,9.86
2022-11-05T21:59:25.090Z,9.74
2022-11-05T22:02:01.339Z,9.83
2022-11-05T22:04:30.309Z,9.80
2022-11-05T22:06:57.151Z,9.87
2022-11-05T22:09:24.893Z,9.70
2022-11-05T22:11:51.944Z,9.84
2022-11-05T22:14:18.391Z,9.87
2022-11-05T22:16:44.854Z,9.85
2022-11-05T22:19:11.635Z,9.89
2022-11-05T22:21:38.197Z,9.88
2022-11-05T22:24:05.756Z,9.89
2022-11-05T22:26:32.750Z,9.90
2022-11-05T22:28:59.228Z,9.92
2022-11-05T22:31:25.717Z,9.94
2022-11-05T22:33:52.477Z,9.95
2022-11-05T22:36:18.958Z,9.98
2022-11-05T22:38:45.454Z,10.03
2022-11-05T22:41:19.073Z,9.95
2022-11-05T22:43:46.297Z,9.92
2022-11-05T22:46:19.044Z,9.92
2022-11-05T22:48:45.851Z,9.91
2022-11-05T22:51:14.957Z,9.94
2022-11-05T22:53:41.864Z,9.95
2022-11-05T22:56:10.393Z,9.92
2022-11-05T22:58:36.730Z,9.96
2022-11-05T23:01:04.326Z,10.01
2022-11-05T23:03:32.445Z,9.99
2022-11-05T23:06:03.586Z,9.93
2022-11-05T23:08:49.333Z,10.00
2022-11-05T23:11:35.723Z,10.02
2022-11-05T23:14:02.648Z,10.02
2022-11-05T23:16:47.434Z,10.05
2022-11-05T23:19:32.338Z,10.00
2022-11-05T23:22:17.425Z,9.98
2022-11-05T23:24:43.950Z,9.94
2022-11-05T23:27:10.212Z,9.93
2022-11-05T23:29:36.634Z,9.90
2022-11-05T23:32:21.957Z,9.76
2022-11-05T23:34:48.194Z,9.89
2022-11-05T23:37:33.176Z,9.85
2022-11-05T23:39:59.433Z,9.77
2022-11-05T23:42:44.742Z,9.92
2022-11-05T23:45:29.674Z,9.96
2022-11-05T23:48:15.252Z,9.85
2022-11-05T23:50:43.754Z,10.04
2022-11-05T23:53:10.454Z,9.97
2022-11-05T23:55:36.899Z,9.98
2022-11-05T23:58:03.383Z,9.96
